createdAt,value
2016-11-15T13:57:24.968Z,94944
2016-11-15T13:57:41.680Z,84416
2016-11-15T13:57:58.403Z,81824
2016-11-15T13:58:15.116Z,83840
2016-11-15T13:58:31.913Z,79328
2016-11-15T13:58:48.634Z,74432
2016-11-15T13:59:05.376Z,73472
2016-11-15T13:59:22.084Z,72416
2016-11-15T13:59:38.831Z,72352
2016-11-15T13:59:55.521Z,70624
2016-11-15T14:00:12.250Z,68736
2016-11-15T14:00:28.930Z,67936
2016-11-15T14:00:45.667Z,66464
2016-11-15T14:01:02.385Z,64384
2016-11-15T14:01:19.100Z,62432
2016-11-15T14:01:35.813Z,61024
2016-11-15T14:01:52.551Z,60384
2016-11-15T14:02:09.268Z,59744
2016-11-15T14:02:25.982Z,59136
2016-11-15T14:02:42.705Z,57536
2016-11-15T14:02:59.442Z,56288
2016-11-15T14:03:16.142Z,54528
2016-11-15T14:03:32.842Z,53216
2016-11-15T14:03:50.078Z,51872
2016-11-15T14:04:06.808Z,51040
2016-11-15T14:04:23.538Z,50528
2016-11-15T14:04:40.269Z,50112
2016-11-15T14:04:57.033Z,49536
2016-11-15T14:05:13.748Z,48640
2016-11-15T14:05:30.491Z,47648
2016-11-15T14:05:47.189Z,46880
2016-11-15T14:06:03.903Z,46208
2016-11-15T14:06:20.654Z,45984
2016-11-15T14:06:37.406Z,45728
2016-11-15T14:06:54.125Z,45184
2016-11-15T14:07:10.845Z,44160
2016-11-15T14:07:27.554Z,43360
2016-11-15T14:07:44.281Z,42528
2016-11-15T14:08:01.005Z,41504
2016-11-15T14:08:17.709Z,40224
2016-11-15T14:08:34.397Z,38208
2016-11-15T14:08:51.107Z,36832
2016-11-15T14:09:07.830Z,35424
2016-11-15T14:09:24.578Z,34016
2016-11-15T14:09:41.265Z,32768
2016-11-15T14:09:57.972Z,31936
2016-11-15T14:10:14.732Z,31584
2016-11-15T14:10:31.430Z,31488
2016-11-15T14:10:48.148Z,31648
2016-11-15T14:11:04.886Z,32000
2016-11-15T14:11:21.710Z,32544
2016-11-15T14:11:38.452Z,32992
2016-11-15T14:11:55.171Z,32960
2016-11-15T14:12:12.410Z,32672
2016-11-15T14:12:29.124Z,32160
2016-11-15T14:12:45.834Z,31328
2016-11-15T14:13:02.543Z,30336
2016-11-15T14:13:19.283Z,28768
2016-11-15T14:13:35.983Z,27392
2016-11-15T14:13:52.716Z,26176
2016-11-15T14:14:09.454Z,25088
2016-11-15T14:14:26.156Z,24192
2016-11-15T14:14:42.886Z,23648
2016-11-15T14:14:59.588Z,23296
2016-11-15T14:15:16.318Z,22976
2016-11-15T14:15:33.026Z,22688
2016-11-15T14:15:49.759Z,22432
2016-11-15T14:16:06.466Z,21952
2016-11-15T14:16:23.185Z,21344
2016-11-15T14:16:39.909Z,20832
2016-11-15T14:16:56.621Z,20576
2016-11-15T14:17:13.335Z,20576
2016-11-15T14:17:30.038Z,20992
2016-11-15T14:17:46.776Z,21728
2016-11-15T14:18:03.480Z,22720
2016-11-15T14:18:20.187Z,23744
2016-11-15T14:18:36.902Z,24864
2016-11-15T14:18:53.638Z,26176
2016-11-15T14:19:10.351Z,28224
2016-11-15T14:19:27.074Z,30912
2016-11-15T14:19:44.300Z,33440
2016-11-15T14:20:01.029Z,36032
2016-11-15T14:20:17.761Z,38176
2016-11-15T14:20:34.482Z,40000
2016-11-15T14:20:51.221Z,41376
2016-11-15T14:21:07.918Z,42304
2016-11-15T14:21:24.656Z,42912
2016-11-15T14:21:41.406Z,42560
2016-11-15T14:21:58.129Z,43040
2016-11-15T14:22:14.850Z,44832
2016-11-15T14:22:31.583Z,46880
2016-11-15T14:22:48.342Z,48256
2016-11-15T14:23:05.065Z,49568
2016-11-15T14:23:21.797Z,49920
2016-11-15T14:23:38.513Z,49568
2016-11-15T14:23:55.259Z,50016
2016-11-15T14:24:11.976Z,51008
2016-11-15T14:24:28.722Z,52128
2016-11-15T14:24:46.012Z,53536
2016-11-15T14:25:02.728Z,54592
2016-11-15T14:25:19.441Z,55776
2016-11-15T14:25:36.178Z,57472
2016-11-15T14:25:52.891Z,59392
2016-11-15T14:26:09.610Z,61248
2016-11-15T14:26:26.428Z,63456
2016-11-15T14:26:43.717Z,66656
2016-11-15T14:27:00.433Z,69504
2016-11-15T14:27:17.143Z,68960
2016-11-15T14:27:33.856Z,69120
2016-11-15T14:27:50.566Z,69888
2016-11-15T14:28:07.286Z,70368
2016-11-15T14:28:24.024Z,70912
2016-11-15T14:28:40.793Z,71168
2016-11-15T14:28:57.509Z,71488
2016-11-15T14:29:14.231Z,71840
2016-11-15T14:29:30.952Z,72480
2016-11-15T14:29:47.697Z,72512
2016-11-15T14:30:04.422Z,72192
2016-11-15T14:30:21.159Z,72288
2016-11-15T14:30:37.865Z,72448
2016-11-15T14:30:54.583Z,72864
2016-11-15T14:31:11.283Z,75136
2016-11-15T14:31:28.019Z,76128
2016-11-15T14:31:44.731Z,84416
2016-11-15T14:32:01.464Z,92800
2016-11-15T14:32:18.212Z,108064
2016-11-15T14:32:34.939Z,143424
2016-11-15T14:32:51.672Z,153408
2016-11-15T14:33:08.391Z,164192
2016-11-15T14:33:25.148Z,159360
2016-11-15T14:33:41.852Z,160384
2016-11-15T14:33:58.599Z,166880
2016-11-15T14:34:15.313Z,159392
2016-11-15T14:34:32.004Z,158432
2016-11-15T14:34:48.873Z,159104
2016-11-15T14:35:05.586Z,158560
2016-11-15T14:35:22.317Z,157696
2016-11-15T14:35:39.031Z,152032
2016-11-15T14:35:55.752Z,149248
2016-11-15T14:36:12.664Z,155808
2016-11-15T14:36:29.938Z,155200
2016-11-15T14:36:46.646Z,156384
2016-11-15T14:37:03.386Z,157664
2016-11-15T14:37:20.116Z,129376
2016-11-15T14:37:36.845Z,148192
2016-11-15T14:37:53.607Z,145312
2016-11-15T14:38:10.295Z,155680
2016-11-15T14:38:27.017Z,150560
2016-11-15T14:38:43.739Z,157248
2016-11-15T14:39:00.468Z,160928
2016-11-15T14:39:17.202Z,167520
2016-11-15T14:39:33.920Z,181696
2016-11-15T14:39:50.622Z,145632
2016-11-15T14:40:07.351Z,158240
2016-11-15T14:40:24.116Z,71584
2016-11-15T14:40:40.832Z,65408
2016-11-15T14:40:57.575Z,50944
2016-11-15T14:41:14.289Z,43968
2016-11-15T14:41:31.110Z,37792
2016-11-15T14:41:47.820Z,33504
2016-11-15T14:42:04.544Z,30368
2016-11-15T14:42:21.766Z,28544
2016-11-15T14:42:38.494Z,27936
2016-11-15T14:42:55.258Z,28352
2016-11-15T14:43:11.960Z,29824
2016-11-15T14:43:28.669Z,32224
2016-11-15T14:43:45.374Z,35072
2016-11-15T14:44:02.106Z,37888
2016-11-15T14:44:18.817Z,40896
2016-11-15T14:44:35.537Z,43968
2016-11-15T14:44:52.255Z,47808
2016-11-15T14:45:08.995Z,52800
2016-11-15T14:45:25.735Z,60064
2016-11-15T14:45:42.424Z,65952
2016-11-15T14:45:59.151Z,71424
2016-11-15T14:46:15.857Z,74496
2016-11-15T14:46:32.578Z,73632
2016-11-15T14:46:49.302Z,76000
2016-11-15T14:47:06.053Z,77408
2016-11-15T14:47:22.773Z,78112
2016-11-15T14:47:39.512Z,82720
2016-11-15T14:47:56.220Z,83488
2016-11-15T14:48:12.965Z,83296
2016-11-15T14:48:29.697Z,87968
2016-11-15T14:48:46.417Z,92064
2016-11-15T14:49:03.150Z,112160
2016-11-15T14:49:19.873Z,94912
2016-11-15T14:49:36.600Z,112608
2016-11-15T14:49:53.314Z,117312
2016-11-15T14:50:10.059Z,124928
2016-11-15T14:50:26.765Z,131616
2016-11-15T14:50:43.479Z,147008
2016-11-15T14:51:00.250Z,117920
2016-11-15T14:51:16.947Z,183264
2016-11-15T14:51:33.833Z,170400
2016-11-15T14:51:50.536Z,166208
2016-11-15T14:52:07.293Z,132320
2016-11-15T14:52:24.023Z,132096
2016-11-15T14:52:40.762Z,172288
2016-11-15T14:52:57.544Z,175488
2016-11-15T14:53:14.261Z,165120
2016-11-15T14:53:31.505Z,164128
2016-11-15T14:53:48.222Z,152160
2016-11-15T14:54:04.929Z,124544
2016-11-15T14:54:21.670Z,110432
2016-11-15T14:54:38.873Z,103680
2016-11-15T14:54:55.596Z,96640
2016-11-15T14:55:12.330Z,93248
2016-11-15T14:55:29.070Z,95040
2016-11-15T14:55:45.791Z,90048
2016-11-15T14:56:02.548Z,81728
2016-11-15T14:56:19.284Z,71872
2016-11-15T14:56:36.169Z,65344
2016-11-15T14:56:52.912Z,63296
2016-11-15T14:57:09.652Z,62272
2016-11-15T14:57:26.406Z,61088
2016-11-15T14:57:43.121Z,59488
2016-11-15T14:57:59.847Z,56736
2016-11-15T14:58:16.625Z,54272
2016-11-15T14:58:33.356Z,52608
2016-11-15T14:58:50.058Z,51552
2016-11-15T14:59:06.779Z,51168
2016-11-15T14:59:23.523Z,51264
2016-11-15T14:59:40.851Z,51840
2016-11-15T14:59:57.608Z,52864
2016-11-15T15:00:14.334Z,53952
2016-11-15T15:00:31.110Z,54880
2016-11-15T15:00:47.900Z,55968
2016-11-15T15:01:04.648Z,56896
2016-11-15T15:01:21.375Z,57472
2016-11-15T15:01:38.075Z,57568
2016-11-15T15:01:54.801Z,57088
2016-11-15T15:02:11.512Z,57280
2016-11-15T15:02:28.239Z,59072
2016-11-15T15:02:44.967Z,60992
2016-11-15T15:03:01.746Z,61408
2016-11-15T15:03:18.465Z,65408
2016-11-15T15:03:35.212Z,67360
2016-11-15T15:03:51.943Z,64832
2016-11-15T15:04:08.682Z,66656
2016-11-15T15:04:25.410Z,68640
2016-11-15T15:04:42.226Z,76480
2016-11-15T15:04:58.945Z,73472
2016-11-15T15:05:15.704Z,78304
2016-11-15T15:05:32.489Z,78432
2016-11-15T15:05:49.261Z,78784
2016-11-15T15:06:06.018Z,77248
2016-11-15T15:06:22.750Z,77472
2016-11-15T15:06:39.512Z,72448
2016-11-15T15:06:56.342Z,63200
2016-11-15T15:07:13.079Z,56736
2016-11-15T15:07:29.802Z,48736
2016-11-15T15:07:46.533Z,43424
2016-11-15T15:08:03.342Z,39616
2016-11-15T15:08:20.081Z,37152
2016-11-15T15:08:36.799Z,35552
2016-11-15T15:08:53.548Z,34496
2016-11-15T15:09:10.315Z,33760
2016-11-15T15:09:27.049Z,32960
2016-11-15T15:09:43.780Z,31936
2016-11-15T15:10:01.027Z,31008
2016-11-15T15:10:17.772Z,30368
2016-11-15T15:10:34.504Z,29664
2016-11-15T15:10:51.226Z,28800
2016-11-15T15:11:07.999Z,27488
2016-11-15T15:11:24.728Z,25856
2016-11-15T15:11:41.586Z,24288
2016-11-15T15:11:58.876Z,22912
2016-11-15T15:12:15.600Z,21952
2016-11-15T15:12:32.357Z,21472
2016-11-15T15:12:49.102Z,21280
2016-11-15T15:13:05.833Z,21184
2016-11-15T15:13:22.602Z,21600
2016-11-15T15:13:39.325Z,22528
2016-11-15T15:13:56.025Z,24064
2016-11-15T15:14:12.758Z,25696
2016-11-15T15:14:29.477Z,26720
2016-11-15T15:14:46.199Z,27712
2016-11-15T15:15:02.933Z,28704
2016-11-15T15:15:19.704Z,29440
2016-11-15T15:15:36.446Z,30208
2016-11-15T15:15:53.159Z,31232
2016-11-15T15:16:09.903Z,32736
2016-11-15T15:16:26.645Z,34208
2016-11-15T15:16:43.490Z,36128
2016-11-15T15:17:00.187Z,38400
2016-11-15T15:17:16.930Z,40160
2016-11-15T15:17:33.680Z,42016
2016-11-15T15:17:50.402Z,43584
2016-11-15T15:18:07.140Z,44928
2016-11-15T15:18:23.872Z,46368
2016-11-15T15:18:40.581Z,47872
2016-11-15T15:18:57.329Z,49088
2016-11-15T15:19:14.067Z,50272
2016-11-15T15:19:30.809Z,51520
2016-11-15T15:19:47.534Z,52544
2016-11-15T15:20:04.244Z,53280
2016-11-15T15:20:21.263Z,53408
2016-11-15T15:20:37.988Z,53248
2016-11-15T15:20:54.734Z,52992
2016-11-15T15:21:11.471Z,52448
2016-11-15T15:21:28.208Z,51776
2016-11-15T15:21:44.996Z,51232
2016-11-15T15:22:01.698Z,49824
2016-11-15T15:22:18.424Z,47360
2016-11-15T15:22:35.150Z,44928
2016-11-15T15:22:51.927Z,42816
2016-11-15T15:23:08.660Z,41184
2016-11-15T15:23:25.389Z,40064
2016-11-15T15:23:42.111Z,39072
2016-11-15T15:23:58.844Z,38176
2016-11-15T15:24:15.561Z,37312
2016-11-15T15:24:32.272Z,36352
2016-11-15T15:24:49.015Z,35456
2016-11-15T15:25:05.740Z,34496
2016-11-15T15:25:22.465Z,33696
2016-11-15T15:25:39.193Z,33248
2016-11-15T15:25:55.915Z,33056
2016-11-15T15:26:12.657Z,33408
2016-11-15T15:26:29.416Z,34336
2016-11-15T15:26:46.335Z,36000
2016-11-15T15:27:03.108Z,37888
2016-11-15T15:27:19.925Z,39424
2016-11-15T15:27:36.652Z,39680
2016-11-15T15:27:53.414Z,39808
2016-11-15T15:28:10.136Z,40256
2016-11-15T15:28:26.859Z,42272
2016-11-15T15:28:43.606Z,47264
2016-11-15T15:29:00.336Z,55136
2016-11-15T15:29:17.104Z,68448
2016-11-15T15:29:33.865Z,75008
2016-11-15T15:29:50.593Z,79200
2016-11-15T15:30:07.316Z,85408
2016-11-15T15:30:24.736Z,90144
2016-11-15T15:30:41.440Z,89984
2016-11-15T15:30:58.148Z,82112
2016-11-15T15:31:14.909Z,77664
2016-11-15T15:31:31.656Z,75040
2016-11-15T15:31:48.387Z,75136
2016-11-15T15:32:05.110Z,72576
2016-11-15T15:32:21.907Z,72416
2016-11-15T15:32:38.678Z,69024
2016-11-15T15:32:55.437Z,64416
2016-11-15T15:33:12.142Z,63616
2016-11-15T15:33:28.911Z,64384
2016-11-15T15:33:45.656Z,66112
2016-11-15T15:34:02.375Z,68256
2016-11-15T15:34:19.101Z,70272
2016-11-15T15:34:35.812Z,69632
2016-11-15T15:34:52.541Z,71808
2016-11-15T15:35:09.765Z,72288
2016-11-15T15:35:26.455Z,69792
2016-11-15T15:35:43.173Z,70848
2016-11-15T15:35:59.915Z,67488
2016-11-15T15:36:16.653Z,68320
2016-11-15T15:36:33.393Z,69984
2016-11-15T15:36:50.170Z,69152
2016-11-15T15:37:06.920Z,68832
2016-11-15T15:37:23.653Z,65728
2016-11-15T15:37:40.396Z,65376
2016-11-15T15:37:57.140Z,66016
2016-11-15T15:38:13.862Z,66432
2016-11-15T15:38:30.581Z,67296
2016-11-15T15:38:47.324Z,70112
2016-11-15T15:39:04.040Z,70880
2016-11-15T15:39:20.787Z,72160
2016-11-15T15:39:37.519Z,66496
2016-11-15T15:39:54.284Z,63680
2016-11-15T15:40:11.001Z,62016
2016-11-15T15:40:27.744Z,61984
2016-11-15T15:40:44.481Z,62976
2016-11-15T15:41:01.208Z,65120
2016-11-15T15:41:17.930Z,67840
2016-11-15T15:41:34.669Z,86272
2016-11-15T15:41:51.513Z,104480
2016-11-15T15:42:08.248Z,95040
2016-11-15T15:42:24.958Z,87488
2016-11-15T15:42:41.680Z,87744
2016-11-15T15:42:58.932Z,77152
2016-11-15T15:43:15.661Z,93472
2016-11-15T15:43:32.385Z,133664
2016-11-15T15:43:49.124Z,136576
2016-11-15T15:44:05.858Z,115168
2016-11-15T15:44:22.577Z,119904
2016-11-15T15:44:39.314Z,148256
2016-11-15T15:44:56.077Z,163584
2016-11-15T15:45:12.789Z,165216
2016-11-15T15:45:29.524Z,159456
2016-11-15T15:45:46.254Z,155040
2016-11-15T15:46:02.977Z,122368
2016-11-15T15:46:19.720Z,134976
2016-11-15T15:46:36.450Z,121312
2016-11-15T15:46:53.159Z,109824
2016-11-15T15:47:09.884Z,143008
2016-11-15T15:47:26.606Z,173440
2016-11-15T15:47:43.351Z,167200
2016-11-15T15:48:00.609Z,123456
2016-11-15T15:48:17.337Z,150368
2016-11-15T15:48:34.067Z,138592
2016-11-15T15:48:50.785Z,126144
2016-11-15T15:49:07.498Z,120928
2016-11-15T15:49:25.065Z,117568
2016-11-15T15:49:41.782Z,104896
2016-11-15T15:49:58.504Z,90432
2016-11-15T15:50:15.223Z,122784
2016-11-15T15:50:31.947Z,154912
2016-11-15T15:50:48.658Z,163776
2016-11-15T15:51:05.402Z,118976
2016-11-15T15:51:22.121Z,134496
2016-11-15T15:51:38.847Z,117824
2016-11-15T15:51:55.684Z,96992
2016-11-15T15:52:12.424Z,82592
2016-11-15T15:52:29.127Z,74464
2016-11-15T15:52:45.868Z,78368
2016-11-15T15:53:02.599Z,82304
2016-11-15T15:53:19.294Z,74432
2016-11-15T15:53:36.519Z,77280
2016-11-15T15:53:53.245Z,76640
2016-11-15T15:54:09.960Z,77376
2016-11-15T15:54:26.685Z,74304
2016-11-15T15:54:43.424Z,74144
2016-11-15T15:55:00.149Z,74048
2016-11-15T15:55:16.896Z,77472
2016-11-15T15:55:33.633Z,74208
2016-11-15T15:55:50.374Z,75680
2016-11-15T15:56:07.096Z,75328
2016-11-15T15:56:23.828Z,79648
2016-11-15T15:56:40.539Z,87712
2016-11-15T15:56:57.363Z,82048
2016-11-15T15:57:14.099Z,64672
2016-11-15T15:57:30.838Z,62496
2016-11-15T15:57:47.582Z,61536
2016-11-15T15:58:04.327Z,61856
2016-11-15T15:58:21.069Z,63296
2016-11-15T15:58:37.777Z,72768
2016-11-15T15:58:54.562Z,71936
2016-11-15T15:59:11.265Z,70336
2016-11-15T15:59:27.980Z,78560
2016-11-15T15:59:44.712Z,95392
2016-11-15T16:00:01.448Z,82112
2016-11-15T16:00:18.195Z,82816
2016-11-15T16:00:34.941Z,85632
2016-11-15T16:00:52.207Z,68128
2016-11-15T16:01:08.938Z,57376
2016-11-15T16:01:25.677Z,57920
2016-11-15T16:01:42.412Z,46368
2016-11-15T16:01:59.119Z,39904
2016-11-15T16:02:15.831Z,36352
2016-11-15T16:02:32.552Z,33408
2016-11-15T16:02:49.255Z,31008
2016-11-15T16:03:05.974Z,29024
2016-11-15T16:03:22.700Z,27520
2016-11-15T16:03:39.424Z,26304
2016-11-15T16:03:56.181Z,25248
2016-11-15T16:04:13.441Z,24320
2016-11-15T16:04:30.161Z,23872
2016-11-15T16:04:46.882Z,23840
2016-11-15T16:05:03.625Z,23904
2016-11-15T16:05:20.355Z,24224
2016-11-15T16:05:37.111Z,24704
2016-11-15T16:05:53.821Z,25312
2016-11-15T16:06:10.592Z,25728
2016-11-15T16:06:27.316Z,26080
2016-11-15T16:06:44.036Z,26208
2016-11-15T16:07:00.744Z,26368
2016-11-15T16:07:17.496Z,26336
2016-11-15T16:07:34.226Z,26400
2016-11-15T16:07:50.966Z,26720
2016-11-15T16:08:07.669Z,27104
2016-11-15T16:08:24.400Z,27104
2016-11-15T16:08:41.126Z,26976
2016-11-15T16:08:57.849Z,27072
2016-11-15T16:09:14.597Z,27232
2016-11-15T16:09:31.329Z,27456
2016-11-15T16:09:48.050Z,27584
2016-11-15T16:10:04.830Z,27680
2016-11-15T16:10:21.558Z,27712
2016-11-15T16:10:38.298Z,27872
2016-11-15T16:10:55.053Z,28320
2016-11-15T16:11:11.771Z,29120
2016-11-15T16:11:28.501Z,30336
2016-11-15T16:11:45.230Z,32128
2016-11-15T16:12:02.068Z,33984
2016-11-15T16:12:18.773Z,35648
2016-11-15T16:12:35.509Z,37472
2016-11-15T16:12:52.238Z,39168
2016-11-15T16:13:08.968Z,40768
2016-11-15T16:13:25.692Z,42240
2016-11-15T16:13:42.430Z,43904
2016-11-15T16:13:59.148Z,45600
2016-11-15T16:14:16.382Z,46848
2016-11-15T16:14:33.099Z,47808
2016-11-15T16:14:49.817Z,49184
2016-11-15T16:15:06.552Z,51616
2016-11-15T16:15:23.270Z,56224
2016-11-15T16:15:40.007Z,67808
2016-11-15T16:15:56.722Z,62464
2016-11-15T16:16:13.456Z,60416
2016-11-15T16:16:30.156Z,75360
2016-11-15T16:16:46.903Z,63840
2016-11-15T16:17:03.729Z,69216
2016-11-15T16:17:20.473Z,81568
2016-11-15T16:17:37.200Z,122464
2016-11-15T16:17:53.914Z,121280
2016-11-15T16:18:10.669Z,128000
2016-11-15T16:18:27.397Z,95040
2016-11-15T16:18:44.109Z,98752
2016-11-15T16:19:00.824Z,64192
2016-11-15T16:19:17.575Z,52640
2016-11-15T16:19:34.319Z,48480
2016-11-15T16:19:51.002Z,46464
2016-11-15T16:20:07.740Z,45344
2016-11-15T16:20:24.476Z,44800
2016-11-15T16:20:41.196Z,44256
2016-11-15T16:20:57.920Z,44096
2016-11-15T16:21:14.647Z,44320
2016-11-15T16:21:31.362Z,44672
2016-11-15T16:21:48.148Z,45184
2016-11-15T16:22:04.969Z,45408
2016-11-15T16:22:21.686Z,45472
2016-11-15T16:22:38.389Z,45504
2016-11-15T16:22:55.114Z,45888
2016-11-15T16:23:11.869Z,46368
2016-11-15T16:23:28.593Z,46912
2016-11-15T16:23:45.329Z,47552
2016-11-15T16:24:02.044Z,48480
2016-11-15T16:24:18.776Z,49376
2016-11-15T16:24:35.501Z,50240
2016-11-15T16:24:52.212Z,51136
2016-11-15T16:25:08.948Z,52064
2016-11-15T16:25:25.679Z,53632
2016-11-15T16:25:42.452Z,64768
2016-11-15T16:25:59.172Z,132928
2016-11-15T16:26:15.938Z,138720
2016-11-15T16:26:32.635Z,139264
2016-11-15T16:26:49.358Z,119712
2016-11-15T16:27:06.222Z,127904
2016-11-15T16:27:22.940Z,126208
2016-11-15T16:27:39.691Z,63456
2016-11-15T16:27:56.467Z,59712
2016-11-15T16:28:13.193Z,60384
2016-11-15T16:28:29.902Z,60768
2016-11-15T16:28:46.669Z,60704
2016-11-15T16:29:03.404Z,60928
2016-11-15T16:29:20.159Z,61728
2016-11-15T16:29:36.881Z,70272
2016-11-15T16:29:53.597Z,116096
2016-11-15T16:30:10.331Z,157472
2016-11-15T16:30:27.541Z,144384
2016-11-15T16:30:44.275Z,138528
2016-11-15T16:31:00.995Z,133664
2016-11-15T16:31:17.718Z,142336
2016-11-15T16:31:34.450Z,110176
2016-11-15T16:31:51.213Z,108288
2016-11-15T16:32:07.947Z,100960
2016-11-15T16:32:24.680Z,89440
2016-11-15T16:32:41.421Z,101664
2016-11-15T16:32:58.153Z,112448
2016-11-15T16:33:14.895Z,132480
2016-11-15T16:33:31.627Z,117472
2016-11-15T16:33:48.354Z,94080
2016-11-15T16:34:05.069Z,83552
2016-11-15T16:34:21.806Z,51232
2016-11-15T16:34:39.077Z,46336
2016-11-15T16:34:55.816Z,45088
2016-11-15T16:35:12.547Z,44896
2016-11-15T16:35:29.276Z,47200
2016-11-15T16:35:46.053Z,47008
2016-11-15T16:36:02.808Z,46944
2016-11-15T16:36:19.525Z,48992
2016-11-15T16:36:36.258Z,56320
2016-11-15T16:36:53.013Z,58272
2016-11-15T16:37:09.754Z,55488
2016-11-15T16:37:26.490Z,54048
2016-11-15T16:37:43.218Z,55744
2016-11-15T16:37:59.945Z,58944
2016-11-15T16:38:16.652Z,60672
2016-11-15T16:38:33.379Z,56160
2016-11-15T16:38:50.129Z,54720
2016-11-15T16:39:06.861Z,56736
2016-11-15T16:39:23.614Z,54464
2016-11-15T16:39:40.354Z,52992
2016-11-15T16:39:57.069Z,51104
2016-11-15T16:40:13.786Z,50688
2016-11-15T16:40:30.500Z,50944
2016-11-15T16:40:47.212Z,51520
2016-11-15T16:41:03.929Z,51968
2016-11-15T16:41:20.637Z,52256
2016-11-15T16:41:37.380Z,52128
2016-11-15T16:41:54.085Z,52128
2016-11-15T16:42:10.930Z,52768
2016-11-15T16:42:28.182Z,53280
2016-11-15T16:42:44.915Z,54848
2016-11-15T16:43:01.641Z,53216
2016-11-15T16:43:18.386Z,50688
2016-11-15T16:43:35.095Z,50016
2016-11-15T16:43:51.858Z,49664
2016-11-15T16:44:08.577Z,49440
2016-11-15T16:44:25.305Z,49504
2016-11-15T16:44:42.045Z,49344
2016-11-15T16:44:58.790Z,49344
2016-11-15T16:45:15.519Z,49472
2016-11-15T16:45:32.228Z,49632
2016-11-15T16:45:48.955Z,49824
2016-11-15T16:46:06.210Z,50048
2016-11-15T16:46:22.924Z,50272
2016-11-15T16:46:39.634Z,50592
2016-11-15T16:46:56.346Z,50880
2016-11-15T16:47:13.082Z,51104
2016-11-15T16:47:29.798Z,51104
2016-11-15T16:47:46.536Z,51168
2016-11-15T16:48:03.259Z,51456
2016-11-15T16:48:19.957Z,51872
2016-11-15T16:48:36.685Z,52448
2016-11-15T16:48:53.412Z,53184
2016-11-15T16:49:10.137Z,53952
2016-11-15T16:49:26.863Z,54656
2016-11-15T16:49:43.587Z,55328
2016-11-15T16:50:00.300Z,56096
2016-11-15T16:50:17.022Z,56864
2016-11-15T16:50:33.748Z,57728
2016-11-15T16:50:50.468Z,59040
2016-11-15T16:51:07.181Z,64128
2016-11-15T16:51:23.888Z,85664
2016-11-15T16:51:40.638Z,77920
2016-11-15T16:51:57.350Z,78336
2016-11-15T16:52:14.156Z,83264
2016-11-15T16:52:31.456Z,102944
2016-11-15T16:52:48.206Z,103936
2016-11-15T16:53:04.956Z,109184
2016-11-15T16:53:21.701Z,105504
2016-11-15T16:53:38.421Z,103488
2016-11-15T16:53:55.188Z,118336
2016-11-15T16:54:11.918Z,124768
2016-11-15T16:54:28.627Z,123136
2016-11-15T16:54:45.391Z,143744
2016-11-15T16:55:02.170Z,112416
2016-11-15T16:55:18.866Z,146464
2016-11-15T16:55:35.586Z,147424
2016-11-15T16:55:52.313Z,148160
2016-11-15T16:56:09.034Z,138272
2016-11-15T16:56:25.762Z,142304
2016-11-15T16:56:42.490Z,127584
2016-11-15T16:56:59.228Z,133792
2016-11-15T16:57:16.071Z,134208
2016-11-15T16:57:32.817Z,138464
2016-11-15T16:57:49.570Z,139040
2016-11-15T16:58:06.321Z,57120
2016-11-15T16:58:23.057Z,51168
2016-11-15T16:58:39.790Z,58112
2016-11-15T16:58:56.550Z,70144
2016-11-15T16:59:13.804Z,46304
2016-11-15T16:59:30.549Z,47424
2016-11-15T16:59:47.271Z,49952
2016-11-15T17:00:04.000Z,59232
2016-11-15T17:00:20.751Z,73120
2016-11-15T17:00:37.488Z,72160
2016-11-15T17:00:54.199Z,56064
2016-11-15T17:01:10.959Z,51456
2016-11-15T17:01:27.715Z,49120
2016-11-15T17:01:44.443Z,46496
2016-11-15T17:02:01.159Z,45152
2016-11-15T17:02:17.884Z,44800
2016-11-15T17:02:34.607Z,44864
2016-11-15T17:02:51.335Z,47424
2016-11-15T17:03:08.599Z,128192
2016-11-15T17:03:25.322Z,135424
2016-11-15T17:03:42.049Z,88576
2016-11-15T17:03:59.416Z,60832
2016-11-15T17:04:16.134Z,44320
2016-11-15T17:04:32.877Z,44384
2016-11-15T17:04:49.631Z,45088
2016-11-15T17:05:06.332Z,60640
2016-11-15T17:05:23.048Z,50656
2016-11-15T17:05:39.782Z,66112
2016-11-15T17:05:56.535Z,69152
2016-11-15T17:06:13.262Z,51200
2016-11-15T17:06:30.033Z,43360
2016-11-15T17:06:46.762Z,42048
2016-11-15T17:07:03.521Z,41632
2016-11-15T17:07:20.229Z,41472
2016-11-15T17:07:36.944Z,41568
2016-11-15T17:07:53.643Z,41792
2016-11-15T17:08:10.364Z,46048
2016-11-15T17:08:27.079Z,48096
2016-11-15T17:08:43.815Z,44640
2016-11-15T17:09:00.529Z,40704
2016-11-15T17:09:17.254Z,41120
2016-11-15T17:09:33.998Z,42304
2016-11-15T17:09:50.707Z,47136
2016-11-15T17:10:08.163Z,96928
2016-11-15T17:10:24.923Z,126016
2016-11-15T17:10:41.680Z,110368
2016-11-15T17:10:58.400Z,97120
2016-11-15T17:11:15.141Z,84768
2016-11-15T17:11:31.860Z,86080
2016-11-15T17:11:48.589Z,86080
2016-11-15T17:12:05.374Z,71584
2016-11-15T17:12:22.197Z,96736
2016-11-15T17:12:38.896Z,107904
2016-11-15T17:12:55.629Z,54496
2016-11-15T17:13:12.361Z,46592
2016-11-15T17:13:29.107Z,54272
2016-11-15T17:13:45.833Z,47136
2016-11-15T17:14:02.587Z,41952
2016-11-15T17:14:19.830Z,34752
2016-11-15T17:14:36.618Z,31040
2016-11-15T17:14:53.331Z,28480
2016-11-15T17:15:10.547Z,26400
2016-11-15T17:15:27.270Z,24928
2016-11-15T17:15:43.993Z,23968
2016-11-15T17:16:00.726Z,23424
2016-11-15T17:16:17.443Z,23328
2016-11-15T17:16:34.176Z,23392
2016-11-15T17:16:50.912Z,23648
2016-11-15T17:17:07.614Z,24160
2016-11-15T17:17:24.951Z,24800
2016-11-15T17:17:41.683Z,25440
2016-11-15T17:17:58.389Z,26176
2016-11-15T17:18:15.118Z,26912
2016-11-15T17:18:32.356Z,27712
2016-11-15T17:18:49.073Z,28416
2016-11-15T17:19:05.819Z,29184
2016-11-15T17:19:22.543Z,29984
2016-11-15T17:19:39.309Z,30816
2016-11-15T17:19:56.047Z,31520
2016-11-15T17:20:12.764Z,32064
2016-11-15T17:20:29.491Z,32416
2016-11-15T17:20:46.240Z,32640
2016-11-15T17:21:02.961Z,32896
2016-11-15T17:21:19.671Z,33184
2016-11-15T17:21:36.397Z,33472
2016-11-15T17:21:53.109Z,33792
2016-11-15T17:22:09.835Z,34112
2016-11-15T17:22:26.670Z,34400
2016-11-15T17:22:43.955Z,34784
2016-11-15T17:23:00.665Z,35264
2016-11-15T17:23:17.401Z,35872
2016-11-15T17:23:34.136Z,36640
2016-11-15T17:23:50.856Z,37568
2016-11-15T17:24:07.564Z,38656
2016-11-15T17:24:24.258Z,39904
2016-11-15T17:24:40.995Z,41184
2016-11-15T17:24:58.222Z,42560
2016-11-15T17:25:14.962Z,43904
2016-11-15T17:25:31.688Z,45504
2016-11-15T17:25:48.416Z,47200
2016-11-15T17:26:05.145Z,49248
2016-11-15T17:26:22.389Z,51584
2016-11-15T17:26:39.136Z,52512
2016-11-15T17:26:55.893Z,54688
2016-11-15T17:27:12.655Z,60448
2016-11-15T17:27:29.496Z,62720
2016-11-15T17:27:46.241Z,66592
2016-11-15T17:28:02.977Z,75584
2016-11-15T17:28:19.693Z,76672
2016-11-15T17:28:36.928Z,66688
2016-11-15T17:28:53.667Z,62336
2016-11-15T17:29:10.516Z,65248
2016-11-15T17:29:27.284Z,69952
2016-11-15T17:29:43.997Z,75648
2016-11-15T17:30:00.725Z,89728
2016-11-15T17:30:17.504Z,93184
2016-11-15T17:30:34.251Z,89664
2016-11-15T17:30:50.964Z,95168
2016-11-15T17:31:07.688Z,106720
2016-11-15T17:31:24.416Z,33888
2016-11-15T17:31:41.152Z,32832
2016-11-15T17:31:57.856Z,117280